createdAt,value
2022-08-28T00:01:15.792Z,100294.34
2022-08-28T00:03:39.109Z,100302.41
2022-08-28T00:06:02.476Z,100299.75
2022-08-28T00:08:27.215Z,100301.41
2022-08-28T00:10:50.425Z,100301.81
2022-08-28T00:13:18.591Z,100305.06
2022-08-28T00:15:41.969Z,100302.69
2022-08-28T00:18:05.673Z,100305.25
2022-08-28T00:20:29.408Z,100313.69
2022-08-28T00:22:54.713Z,100317.03
2022-08-28T00:25:24.182Z,100311.94
2022-08-28T00:27:57.441Z,100307.25
2022-08-28T00:30:23.036Z,100307.31
2022-08-28T00:32:46.498Z,100304.41
2022-08-28T00:35:10.167Z,100310.66
2022-08-28T00:37:33.758Z,100303.53
2022-08-28T00:39:57.017Z,100294.25
2022-08-28T00:42:21.722Z,100297.78
2022-08-28T00:44:45.779Z,100295.22
2022-08-28T00:47:10.146Z,100289.00
2022-08-28T00:49:45.830Z,100297.78
2022-08-28T00:52:12.780Z,100290.66
2022-08-28T00:54:37.931Z,100284.78
2022-08-28T00:57:01.405Z,100295.41
2022-08-28T00:59:26.959Z,100295.44
2022-08-28T01:01:53.477Z,100296.59
2022-08-28T01:04:17.804Z,100288.66
2022-08-28T01:06:41.004Z,100293.41
2022-08-28T01:09:04.470Z,100292.63
2022-08-28T01:11:29.024Z,100298.16
2022-08-28T01:13:54.435Z,100305.94
2022-08-28T01:16:19.949Z,100299.19
2022-08-28T01:18:43.437Z,100301.22
2022-08-28T01:21:09.434Z,100305.09
2022-08-28T01:23:53.304Z,100304.59
2022-08-28T01:26:16.565Z,100299.16
2022-08-28T01:28:40.050Z,100297.13
2022-08-28T01:31:03.423Z,100300.72
2022-08-28T01:33:27.827Z,100308.13
2022-08-28T01:35:51.758Z,100305.03
2022-08-28T01:38:20.182Z,100295.56
2022-08-28T01:40:53.550Z,100302.88
2022-08-28T01:43:18.293Z,100299.69
2022-08-28T01:45:41.743Z,100296.91
2022-08-28T01:48:05.518Z,100294.72
2022-08-28T01:50:28.920Z,100288.66
2022-08-28T01:52:52.123Z,100292.88
2022-08-28T01:55:15.413Z,100287.66
2022-08-28T01:57:45.910Z,100291.63
2022-08-28T02:00:11.324Z,100295.41
2022-08-28T02:02:35.244Z,100302.72
2022-08-28T02:04:58.563Z,100291.97
2022-08-28T02:07:21.801Z,100297.03
2022-08-28T02:09:45.160Z,100299.94
2022-08-28T02:12:08.623Z,100294.69
2022-08-28T02:14:33.685Z,100298.03
2022-08-28T02:16:57.072Z,100292.19
2022-08-28T02:19:20.906Z,100303.50
2022-08-28T02:21:44.222Z,100295.47
2022-08-28T02:24:07.676Z,100299.88
2022-08-28T02:26:31.815Z,100292.47
2022-08-28T02:28:55.071Z,100294.31
2022-08-28T02:31:20.138Z,100298.03
2022-08-28T02:33:44.794Z,100299.69
2022-08-28T02:36:08.830Z,100302.25
2022-08-28T02:38:32.062Z,100307.00
2022-08-28T02:40:55.570Z,100305.97
2022-08-28T02:43:18.798Z,100309.84
2022-08-28T02:45:42.171Z,100312.38
2022-08-28T02:48:14.642Z,100305.47
2022-08-28T02:50:40.580Z,100314.75
2022-08-28T02:53:03.779Z,100308.34
2022-08-28T02:55:31.303Z,100307.47
2022-08-28T02:57:56.944Z,100317.28
2022-08-28T03:00:21.343Z,100313.06
2022-08-28T03:02:46.361Z,100312.22
2022-08-28T03:05:11.331Z,100314.41
2022-08-28T03:07:34.723Z,100311.88
2022-08-28T03:09:58.017Z,100316.78
2022-08-28T03:12:24.125Z,100317.78
2022-08-28T03:14:47.414Z,100319.31
2022-08-28T03:17:10.767Z,100321.47
2022-08-28T03:19:33.984Z,100316.56
2022-08-28T03:21:58.702Z,100313.69
2022-08-28T03:24:21.994Z,100316.78
2022-08-28T03:26:45.319Z,100314.41
2022-08-28T03:29:08.513Z,100326.19
2022-08-28T03:31:33.847Z,100325.75
2022-08-28T03:33:57.582Z,100324.81
2022-08-28T03:36:22.586Z,100322.50
2022-08-28T03:38:47.250Z,100324.53
2022-08-28T03:41:11.663Z,100324.38
2022-08-28T03:43:34.669Z,100318.44
2022-08-28T03:45:59.240Z,100328.22
2022-08-28T03:48:24.205Z,100325.38
2022-08-28T03:50:47.662Z,100331.25
2022-08-28T03:53:12.486Z,100322.69
2022-08-28T03:55:37.104Z,100328.25
2022-08-28T03:58:01.094Z,100343.94
2022-08-28T04:00:24.418Z,100343.94
2022-08-28T04:02:47.710Z,100341.91
2022-08-28T04:05:11.299Z,100346.28
2022-08-28T04:07:35.126Z,100345.28
2022-08-28T04:09:58.478Z,100350.84
2022-08-28T04:12:23.121Z,100351.34
2022-08-28T04:14:46.391Z,100346.63
2022-08-28T04:17:10.136Z,100343.06
2022-08-28T04:19:33.748Z,100344.91
2022-08-28T04:21:56.965Z,100349.13
2022-08-28T04:24:20.314Z,100344.78
2022-08-28T04:26:43.654Z,100345.63
2022-08-28T04:29:08.255Z,100342.59
2022-08-28T04:31:32.841Z,100349.00
2022-08-28T04:33:56.534Z,100338.88
2022-08-28T04:36:19.880Z,100350.53
2022-08-28T04:38:44.236Z,100345.63
2022-08-28T04:41:07.632Z,100347.63
2022-08-28T04:43:30.844Z,100353.56
2022-08-28T04:45:55.533Z,100345.81
2022-08-28T04:48:19.159Z,100348.16
2022-08-28T04:50:43.138Z,100351.53
2022-08-28T04:53:06.430Z,100352.53
2022-08-28T04:55:53.891Z,100365.03
2022-08-28T04:58:13.521Z,100343.25
2022-08-28T05:00:38.291Z,100361.13
2022-08-28T05:03:02.965Z,100365.19
2022-08-28T05:05:26.317Z,100362.47
2022-08-28T05:07:49.560Z,100354.53
2022-08-28T05:10:12.920Z,100353.88
2022-08-28T05:12:36.756Z,100355.22
2022-08-28T05:15:00.071Z,100359.97
2022-08-28T05:17:23.348Z,100360.97
2022-08-28T05:19:48.433Z,100357.28
2022-08-28T05:22:12.102Z,100354.03
2022-08-28T05:24:35.670Z,100358.63
2022-08-28T05:27:00.444Z,100352.38
2022-08-28T05:29:23.642Z,100365.84
2022-08-28T05:31:48.679Z,100365.25
2022-08-28T05:34:11.960Z,100371.69
2022-08-28T05:36:37.355Z,100361.75
2022-08-28T05:39:00.588Z,100365.69
2022-08-28T05:41:24.982Z,100372.63
2022-08-28T05:43:48.245Z,100369.75
2022-08-28T05:46:13.083Z,100368.56
2022-08-28T05:48:39.074Z,100379.72
2022-08-28T05:51:07.127Z,100378.31
2022-08-28T05:53:31.850Z,100378.84
2022-08-28T05:55:55.196Z,100372.88
2022-08-28T05:58:31.858Z,100388.75
2022-08-28T06:00:55.174Z,100385.38
2022-08-28T06:03:18.451Z,100383.13
2022-08-28T06:05:41.784Z,100378.34
2022-08-28T06:08:05.102Z,100378.41
2022-08-28T06:10:29.902Z,100377.31
2022-08-28T06:12:53.179Z,100379.19
2022-08-28T06:15:16.607Z,100376.13
2022-08-28T06:17:40.379Z,100380.56
2022-08-28T06:20:03.940Z,100377.50
2022-08-28T06:22:27.182Z,100377.66
2022-08-28T06:24:50.549Z,100373.06
2022-08-28T06:27:15.202Z,100370.34
2022-08-28T06:29:39.892Z,100375.91
2022-08-28T06:32:04.601Z,100377.88
2022-08-28T06:34:28.185Z,100379.03
2022-08-28T06:36:54.025Z,100379.50
2022-08-28T06:39:17.603Z,100380.84
2022-08-28T06:41:43.192Z,100381.19
2022-08-28T06:44:07.983Z,100386.25
2022-08-28T06:46:33.278Z,100381.00
2022-08-28T06:48:58.862Z,100382.16
2022-08-28T06:51:23.171Z,100387.69
2022-08-28T06:53:48.430Z,100391.56
2022-08-28T06:56:13.665Z,100390.81
2022-08-28T06:58:51.763Z,100387.38
2022-08-28T07:01:17.867Z,100379.94
2022-08-28T07:03:42.699Z,100381.59
2022-08-28T07:06:08.561Z,100383.97
2022-08-28T07:08:32.083Z,100376.66
2022-08-28T07:10:55.305Z,100379.22
2022-08-28T07:13:18.694Z,100376.16
2022-08-28T07:15:42.052Z,100378.50
2022-08-28T07:18:07.265Z,100375.59
2022-08-28T07:20:30.559Z,100381.69
2022-08-28T07:22:59.355Z,100383.34
2022-08-28T07:25:23.083Z,100385.88
2022-08-28T07:27:46.321Z,100382.16
2022-08-28T07:30:13.168Z,100384.50
2022-08-28T07:32:36.409Z,100391.59
2022-08-28T07:35:01.184Z,100384.13
2022-08-28T07:37:24.440Z,100390.19
2022-08-28T07:39:47.704Z,100392.78
2022-08-28T07:42:10.960Z,100389.88
2022-08-28T07:44:50.849Z,100391.53
2022-08-28T07:47:14.195Z,100390.53
2022-08-28T07:49:37.506Z,100389.69
2022-08-28T07:52:02.221Z,100390.53
2022-08-28T07:54:25.707Z,100397.25
2022-08-28T07:56:49.002Z,100397.06
2022-08-28T07:59:12.408Z,100396.91
2022-08-28T08:01:41.890Z,100391.28
2022-08-28T08:04:05.793Z,100393.16
2022-08-28T08:06:34.259Z,100404.94
2022-08-28T08:08:59.971Z,100401.81
2022-08-28T08:11:23.239Z,100399.72
2022-08-28T08:13:50.876Z,100398.06
2022-08-28T08:16:15.205Z,100402.91
2022-08-28T08:18:38.362Z,100394.78
2022-08-28T08:21:01.619Z,100393.38
2022-08-28T08:23:25.383Z,100388.47
2022-08-28T08:25:56.872Z,100403.31
2022-08-28T08:28:21.129Z,100397.22
2022-08-28T08:30:44.401Z,100399.78
2022-08-28T08:33:07.731Z,100400.59
2022-08-28T08:35:30.938Z,100397.69
2022-08-28T08:37:54.254Z,100399.19
2022-08-28T08:40:19.637Z,100394.63
2022-08-28T08:42:45.289Z,100398.63
2022-08-28T08:45:09.349Z,100398.63
2022-08-28T08:47:36.921Z,100395.53
2022-08-28T08:50:01.506Z,100403.50
2022-08-28T08:52:37.769Z,100414.03
2022-08-28T08:55:11.757Z,100404.84
2022-08-28T08:57:38.449Z,100406.03
2022-08-28T09:00:03.245Z,100405.19
2022-08-28T09:02:31.239Z,100399.97
2022-08-28T09:04:56.449Z,100399.97
2022-08-28T09:07:21.035Z,100396.72
2022-08-28T09:09:46.065Z,100387.03
2022-08-28T09:12:10.510Z,100392.13
2022-08-28T09:14:38.177Z,100395.19
2022-08-28T09:17:02.924Z,100394.84
2022-08-28T09:19:26.187Z,100387.16
2022-08-28T09:21:49.986Z,100389.41
2022-08-28T09:24:18.764Z,100384.91
2022-08-28T09:26:42.047Z,100396.72
2022-08-28T09:29:07.634Z,100394.00
2022-08-28T09:31:32.798Z,100393.16
2022-08-28T09:33:57.541Z,100397.56
2022-08-28T09:36:29.507Z,100395.31
2022-08-28T09:39:10.970Z,100392.78
2022-08-28T09:41:51.790Z,100387.38
2022-08-28T09:44:15.985Z,100392.13
2022-08-28T09:46:45.032Z,100390.53
2022-08-28T09:49:11.967Z,100398.09
2022-08-28T09:51:38.723Z,100397.66
2022-08-28T09:54:03.202Z,100392.88
2022-08-28T09:56:29.820Z,100389.03
2022-08-28T09:58:54.735Z,100396.44
2022-08-28T10:01:29.385Z,100375.69
2022-08-28T10:03:54.498Z,100373.34
2022-08-28T10:06:25.488Z,100392.03
2022-08-28T10:08:57.648Z,100387.91
2022-08-28T10:11:25.410Z,100367.34
2022-08-28T10:13:53.976Z,100384.47
2022-08-28T10:16:23.582Z,100386.03
2022-08-28T10:18:48.524Z,100387.19
2022-08-28T10:21:15.618Z,100393.97
2022-08-28T10:23:57.442Z,100383.34
2022-08-28T10:26:29.931Z,100379.97
2022-08-28T10:28:59.904Z,100385.59
2022-08-28T10:31:25.797Z,100380.16
2022-08-28T10:33:55.477Z,100387.91
2022-08-28T10:36:27.343Z,100383.59
2022-08-28T10:39:03.039Z,100378.38
2022-08-28T10:41:27.448Z,100385.09
2022-08-28T10:43:51.238Z,100378.16
2022-08-28T10:46:15.970Z,100378.84
2022-08-28T10:48:41.465Z,100369.84
2022-08-28T10:51:07.327Z,100370.44
2022-08-28T10:53:33.274Z,100374.34
2022-08-28T10:55:59.522Z,100372.09
2022-08-28T10:58:24.818Z,100348.66
2022-08-28T11:00:49.090Z,100365.38
2022-08-28T11:03:33.019Z,100370.81
2022-08-28T11:06:01.122Z,100365.09
2022-08-28T11:08:26.739Z,100377.06
2022-08-28T11:10:50.824Z,100377.06
2022-08-28T11:13:15.667Z,100373.06
2022-08-28T11:16:00.257Z,100370.16
2022-08-28T11:18:47.778Z,100383.72
2022-08-28T11:21:14.272Z,100383.72
2022-08-28T11:23:39.371Z,100387.47
2022-08-28T11:26:05.226Z,100379.97
2022-08-28T11:28:44.396Z,100375.56
2022-08-28T11:31:38.515Z,100374.16
2022-08-28T11:34:02.820Z,100376.22
2022-08-28T11:36:44.502Z,100367.53
2022-08-28T11:39:18.911Z,100369.56
2022-08-28T11:42:33.491Z,100370.59
2022-08-28T11:44:58.154Z,100379.50
2022-08-28T11:47:39.559Z,100379.50
2022-08-28T11:50:05.809Z,100384.91
2022-08-28T11:52:38.344Z,100374.06
2022-08-28T11:55:06.692Z,100383.72
2022-08-28T11:57:33.219Z,100383.72
2022-08-28T12:00:04.734Z,100376.97
2022-08-28T12:02:55.069Z,100385.59
2022-08-28T12:05:40.942Z,100380.34
2022-08-28T12:08:07.620Z,100372.56
2022-08-28T12:10:53.338Z,100372.56
2022-08-28T12:13:46.306Z,100375.09
2022-08-28T12:16:10.984Z,100366.97
2022-08-28T12:19:00.170Z,100369.69
2022-08-28T12:21:24.189Z,100347.78
2022-08-28T12:23:59.269Z,100362.75
2022-08-28T12:26:24.777Z,100363.97
2022-08-28T12:28:49.643Z,100360.25
2022-08-28T12:32:04.190Z,100370.72
2022-08-28T12:34:33.402Z,100367.13
2022-08-28T12:36:58.071Z,100359.66
2022-08-28T12:39:21.450Z,100353.22
2022-08-28T12:41:44.763Z,100351.38
2022-08-28T12:44:10.691Z,100355.28
2022-08-28T12:46:38.051Z,100358.38
2022-08-28T12:49:02.105Z,100358.38
2022-08-28T12:51:26.660Z,100359.88
2022-08-28T12:53:51.400Z,100359.00
2022-08-28T12:56:17.066Z,100349.66
2022-08-28T12:58:40.720Z,100358.63
2022-08-28T13:01:06.612Z,100362.38
2022-08-28T13:03:32.347Z,100358.84
2022-08-28T13:06:02.141Z,100352.38
2022-08-28T13:08:25.366Z,100350.50
2022-08-28T13:10:49.724Z,100357.78
2022-08-28T13:13:20.839Z,100353.03
2022-08-28T13:15:53.508Z,100357.25
2022-08-28T13:18:55.356Z,100351.63
2022-08-28T13:21:33.490Z,100347.69
2022-08-28T13:23:59.271Z,100356.22
2022-08-28T13:26:27.312Z,100348.66
2022-08-28T13:28:50.569Z,100341.97
2022-08-28T13:31:23.463Z,100346.56
2022-08-28T13:34:04.473Z,100342.34
2022-08-28T13:36:27.716Z,100344.91
2022-08-28T13:38:50.970Z,100347.16
2022-08-28T13:41:14.290Z,100353.22
2022-08-28T13:43:44.450Z,100352.56
2022-08-28T13:46:07.993Z,100353.41
2022-08-28T13:48:31.539Z,100357.16
2022-08-28T13:50:59.369Z,100353.78
2022-08-28T13:53:22.578Z,100343.78
2022-08-28T13:55:45.961Z,100357.34
2022-08-28T13:58:09.371Z,100357.34
2022-08-28T14:00:33.318Z,100359.00
2022-08-28T14:03:14.021Z,100339.19
2022-08-28T14:05:37.513Z,100348.56
2022-08-28T14:08:02.122Z,100345.44
2022-08-28T14:10:25.410Z,100341.72
2022-08-28T14:12:49.321Z,100345.28
2022-08-28T14:15:12.906Z,100338.34
2022-08-28T14:17:36.150Z,100344.97
2022-08-28T14:20:00.328Z,100333.97
2022-08-28T14:22:23.606Z,100337.31
2022-08-28T14:24:48.636Z,100338.19
2022-08-28T14:27:12.022Z,100325.16
2022-08-28T14:29:35.282Z,100333.31
2022-08-28T14:31:59.573Z,100338.72
2022-08-28T14:34:22.926Z,100343.50
2022-08-28T14:36:46.366Z,100350.28
2022-08-28T14:39:10.498Z,100342.81
2022-08-28T14:41:35.398Z,100350.94
2022-08-28T14:43:59.198Z,100340.09
2022-08-28T14:46:23.752Z,100339.28
2022-08-28T14:48:48.029Z,100341.50
2022-08-28T14:51:11.279Z,100341.31
2022-08-28T14:53:34.603Z,100350.94
2022-08-28T14:55:57.925Z,100345.53
2022-08-28T14:58:22.613Z,100349.94
2022-08-28T15:00:47.194Z,100347.78
2022-08-28T15:03:10.799Z,100350.28
2022-08-28T15:05:34.469Z,100345.91
2022-08-28T15:07:57.731Z,100342.16
2022-08-28T15:10:21.057Z,100340.84
2022-08-28T15:12:44.321Z,100344.88
2022-08-28T15:15:10.062Z,100339.63
2022-08-28T15:17:33.910Z,100348.97
2022-08-28T15:20:00.471Z,100348.63
2022-08-28T15:22:27.313Z,100350.13
2022-08-28T15:24:50.974Z,100344.22
2022-08-28T15:27:18.790Z,100343.84
2022-08-28T15:29:42.071Z,100345.91
2022-08-28T15:32:07.252Z,100347.78
2022-08-28T15:34:30.549Z,100347.47
2022-08-28T15:36:55.818Z,100338.34
2022-08-28T15:39:36.718Z,100342.94
2022-08-28T15:42:00.145Z,100343.94
2022-08-28T15:44:23.390Z,100340.38
2022-08-28T15:46:51.683Z,100326.66
2022-08-28T15:49:16.345Z,100341.44
2022-08-28T15:51:40.146Z,100342.25
2022-08-28T15:54:03.510Z,100343.31
2022-08-28T15:56:26.955Z,100337.88
2022-08-28T15:58:50.233Z,100342.63
2022-08-28T16:01:13.805Z,100342.25
2022-08-28T16:03:37.294Z,100338.34
2022-08-28T16:06:02.366Z,100346.84
2022-08-28T16:08:25.614Z,100346.84
2022-08-28T16:10:49.946Z,100344.31
2022-08-28T16:13:13.110Z,100347.03
2022-08-28T16:15:36.564Z,100350.09
2022-08-28T16:17:59.881Z,100356.19
2022-08-28T16:20:23.174Z,100359.75
2022-08-28T16:22:47.865Z,100357.22
2022-08-28T16:25:12.982Z,100355.16
2022-08-28T16:27:36.210Z,100356.19
2022-08-28T16:29:59.529Z,100364.69
2022-08-28T16:32:23.302Z,100368.44
2022-08-28T16:34:46.570Z,100374.22
2022-08-28T16:37:09.838Z,100378.44
2022-08-28T16:39:34.597Z,100388.06
2022-08-28T16:41:57.906Z,100383.66
2022-08-28T16:44:21.151Z,100378.25
2022-08-28T16:46:44.683Z,100374.91
2022-08-28T16:49:07.945Z,100381.16
2022-08-28T16:51:31.666Z,100379.28
2022-08-28T16:53:54.953Z,100383.66
2022-08-28T16:56:19.667Z,100388.47
2022-08-28T16:58:43.160Z,100386.13
2022-08-28T17:01:07.015Z,100386.59
2022-08-28T17:03:30.513Z,100384.25
2022-08-28T17:05:54.164Z,100387.00
2022-08-28T17:08:17.448Z,100388.53
2022-08-28T17:10:40.776Z,100394.41
2022-08-28T17:13:05.390Z,100396.28
2022-08-28T17:15:28.905Z,100406.47
2022-08-28T17:17:52.449Z,100408.16
2022-08-28T17:20:29.679Z,100412.75
2022-08-28T17:22:53.018Z,100411.88
2022-08-28T17:25:16.571Z,100422.34
2022-08-28T17:27:39.852Z,100421.25
2022-08-28T17:30:05.242Z,100433.09
2022-08-28T17:32:28.601Z,100433.47
2022-08-28T17:34:51.854Z,100436.69
2022-08-28T17:37:15.794Z,100439.38
2022-08-28T17:39:39.146Z,100443.94
2022-08-28T17:42:02.427Z,100442.25
2022-08-28T17:44:26.095Z,100443.09
2022-08-28T17:46:51.815Z,100450.22
2022-08-28T17:49:15.131Z,100452.06
2022-08-28T17:51:42.310Z,100452.44
2022-08-28T17:54:07.242Z,100450.22
2022-08-28T17:56:35.809Z,100455.44
2022-08-28T17:58:59.498Z,100458.88
2022-08-28T18:01:24.828Z,100458.38
2022-08-28T18:03:53.513Z,100465.25
2022-08-28T18:06:16.861Z,100460.88
2022-08-28T18:08:40.183Z,100458.53
2022-08-28T18:11:04.094Z,100464.16
2022-08-28T18:13:27.469Z,100463.47
2022-08-28T18:15:56.649Z,100465.97
2022-08-28T18:18:20.479Z,100466.66
2022-08-28T18:20:51.769Z,100473.94
2022-08-28T18:23:17.169Z,100469.19
2022-08-28T18:25:46.674Z,100472.75
2022-08-28T18:28:17.772Z,100474.63
2022-08-28T18:30:45.031Z,100480.03
2022-08-28T18:33:08.359Z,100485.34
2022-08-28T18:35:32.392Z,100485.88
2022-08-28T18:37:57.666Z,100490.94
2022-08-28T18:40:21.315Z,100489.53
2022-08-28T18:42:44.904Z,100486.00
2022-08-28T18:45:09.305Z,100482.66
2022-08-28T18:47:32.935Z,100486.00
2022-08-28T18:49:56.451Z,100487.03
2022-08-28T18:52:19.919Z,100489.53
2022-08-28T18:54:44.816Z,100484.78
2022-08-28T18:57:09.638Z,100483.28
2022-08-28T18:59:34.925Z,100488.91
2022-08-28T19:01:58.496Z,100487.19
2022-08-28T19:04:21.908Z,100494.31
2022-08-28T19:06:45.221Z,100495.81
2022-08-28T19:09:09.796Z,100493.66
2022-08-28T19:11:44.192Z,100497.03
2022-08-28T19:14:07.477Z,100491.41
2022-08-28T19:16:31.668Z,100500.38
2022-08-28T19:18:55.752Z,100506.38
2022-08-28T19:21:19.756Z,100500.09
2022-08-28T19:23:44.600Z,100509.56
2022-08-28T19:26:18.966Z,100511.78
2022-08-28T19:28:45.408Z,100509.22
2022-08-28T19:31:09.022Z,100510.94
2022-08-28T19:33:32.364Z,100503.44
2022-08-28T19:35:55.786Z,100512.25
2022-08-28T19:38:19.088Z,100515.22
2022-08-28T19:40:42.385Z,100511.06
2022-08-28T19:43:05.945Z,100509.06
2022-08-28T19:45:30.646Z,100508.34
2022-08-28T19:47:53.982Z,100510.31
2022-08-28T19:50:17.596Z,100509.50
2022-08-28T19:52:41.166Z,100506.56
2022-08-28T19:55:06.205Z,100516.34
2022-08-28T19:57:29.657Z,100514.81
2022-08-28T19:59:52.981Z,100513.56
2022-08-28T20:02:17.742Z,100520.63
2022-08-28T20:04:41.086Z,100510.34
2022-08-28T20:07:04.880Z,100512.47
2022-08-28T20:09:28.459Z,100511.00
2022-08-28T20:11:52.479Z,100516.44
2022-08-28T20:14:15.865Z,100521.00
2022-08-28T20:16:40.362Z,100526.78
2022-08-28T20:19:05.054Z,100517.34
2022-08-28T20:21:37.397Z,100525.00
2022-08-28T20:24:01.327Z,100516.00
2022-08-28T20:26:24.559Z,100520.66
2022-08-28T20:28:53.987Z,100515.88
2022-08-28T20:31:18.244Z,100512.19
2022-08-28T20:33:41.858Z,100513.94
2022-08-28T20:36:07.662Z,100512.91
2022-08-28T20:38:39.746Z,100512.00
2022-08-28T20:41:07.206Z,100517.56
2022-08-28T20:43:30.507Z,100520.81
2022-08-28T20:45:53.811Z,100519.63
2022-08-28T20:48:17.273Z,100519.78
2022-08-28T20:50:40.557Z,100521.88
2022-08-28T20:53:05.202Z,100519.50
2022-08-28T20:55:28.490Z,100526.09
2022-08-28T20:57:52.527Z,100518.66
2022-08-28T21:00:15.983Z,100520.88
2022-08-28T21:02:39.264Z,100522.41
2022-08-28T21:05:02.704Z,100526.31
2022-08-28T21:07:26.603Z,100519.38
2022-08-28T21:10:05.181Z,100522.91
2022-08-28T21:12:29.938Z,100519.56
2022-08-28T21:14:53.450Z,100518.84
2022-08-28T21:17:22.694Z,100520.56
2022-08-28T21:19:53.690Z,100524.44
2022-08-28T21:22:17.043Z,100512.44
2022-08-28T21:24:42.966Z,100506.72
2022-08-28T21:27:09.598Z,100511.09
2022-08-28T21:29:32.912Z,100514.16
2022-08-28T21:31:56.148Z,100511.56
2022-08-28T21:34:19.479Z,100512.63
2022-08-28T21:36:49.533Z,100514.50
2022-08-28T21:39:13.559Z,100513.00
2022-08-28T21:41:36.779Z,100523.63
2022-08-28T21:44:01.473Z,100525.34
2022-08-28T21:46:24.770Z,100522.97
2022-08-28T21:48:49.321Z,100520.91
2022-08-28T21:51:13.567Z,100519.94
2022-08-28T21:53:36.695Z,100524.47
2022-08-28T21:55:59.987Z,100531.75
2022-08-28T21:58:23.458Z,100520.44
2022-08-28T22:00:49.060Z,100523.31
2022-08-28T22:03:12.278Z,100524.31
2022-08-28T22:05:35.621Z,100520.75
2022-08-28T22:07:58.878Z,100516.25
2022-08-28T22:10:23.010Z,100520.28
2022-08-28T22:12:46.241Z,100511.38
2022-08-28T22:15:09.880Z,100516.75
2022-08-28T22:17:34.476Z,100511.81
2022-08-28T22:19:57.854Z,100517.41
2022-08-28T22:22:38.546Z,100514.72
2022-08-28T22:25:01.839Z,100523.03
2022-08-28T22:27:25.159Z,100521.47
2022-08-28T22:29:48.386Z,100518.56
2022-08-28T22:32:11.791Z,100524.75
2022-08-28T22:34:38.982Z,100517.75
2022-08-28T22:37:02.240Z,100517.91
2022-08-28T22:39:25.508Z,100524.53
2022-08-28T22:41:48.813Z,100521.31
2022-08-28T22:44:12.082Z,100511.53
2022-08-28T22:46:36.008Z,100513.38
2022-08-28T22:48:59.340Z,100514.75
2022-08-28T22:51:24.045Z,100520.31
2022-08-28T22:53:47.453Z,100511.06
2022-08-28T22:56:11.290Z,100510.00
2022-08-28T22:58:34.607Z,100511.03
2022-08-28T23:00:58.116Z,100511.31
2022-08-28T23:03:21.418Z,100506.47
2022-08-28T23:05:44.819Z,100501.19
2022-08-28T23:08:09.483Z,100503.09
2022-08-28T23:10:57.390Z,100498.53
2022-08-28T23:13:16.204Z,100502.25
2022-08-28T23:15:39.446Z,100498.03
2022-08-28T23:18:03.653Z,100501.94
2022-08-28T23:20:28.728Z,100500.44
2022-08-28T23:22:56.394Z,100497.03
2022-08-28T23:25:23.671Z,100498.22
2022-08-28T23:27:47.165Z,100500.59
2022-08-28T23:30:10.979Z,100502.97
2022-08-28T23:32:34.310Z,100504.44
2022-08-28T23:34:57.518Z,100507.66
2022-08-28T23:37:20.873Z,100505.63
2022-08-28T23:39:45.870Z,100509.19
2022-08-28T23:42:10.524Z,100500.75
2022-08-28T23:44:33.744Z,100510.34
2022-08-28T23:46:57.166Z,100507.81
2022-08-28T23:49:24.908Z,100503.59
2022-08-28T23:51:49.988Z,100506.94
2022-08-28T23:54:15.547Z,100504.75
2022-08-28T23:56:38.845Z,100507.09
2022-08-28T23:59:03.856Z,100506.59
